| time (UTC) | temp C | wind direction | speed KPH | gust KPH | rain 1hr cm | rain 24hr cm | rain mn cm | humidity % | barometer mb |
| 20260510020052 | 9 | 360 | 11.3 | 20.9 | 0.00 | 0.03 | 0.00 | 90 | 1017.9 |
| 20260510014553 | 9 | 34 | 9.7 | 17.7 | 0.00 | 0.03 | 0.00 | 90 | 1017.8 |
| 20260510013048 | 10 | 48 | 8.0 | 16.1 | 0.00 | 0.03 | 0.00 | 89 | 1017.9 |
| 20260510011555 | 10 | 25 | 8.0 | 17.7 | 0.00 | 0.03 | 0.00 | 89 | 1018.0 |
| 20260510010054 | 10 | 35 | 4.8 | 14.5 | 0.00 | 0.03 | 0.00 | 88 | 1018.0 |
| 20260510004544 | 10 | 49 | 3.2 | 19.3 | 0.00 | 0.03 | 0.00 | 88 | 1018.0 |
| 20260510003042 | 10 | 36 | 6.4 | 17.7 | 0.00 | 0.03 | 0.00 | 88 | 1017.9 |
| 20260510001539 | 10 | 33 | 6.4 | 16.1 | 0.00 | 0.03 | 0.00 | 87 | 1017.8 |
| 20260510000037 | 10 | 5 | 11.3 | 17.7 | 0.00 | 0.03 | 0.00 | 87 | 1017.8 |
| 20260509234536 | 10 | 26 | 6.4 | 14.5 | 0.00 | 0.05 | 0.00 | 87 | 1017.7 |
| 20260509233036 | 10 | 21 | 9.7 | 16.1 | 0.00 | 0.05 | 0.00 | 86 | 1017.8 |
| 20260509231532 | 10 | 41 | 4.8 | 14.5 | 0.00 | 0.05 | 0.00 | 86 | 1017.8 |
| 20260509230029 | 10 | 36 | 8.0 | 17.7 | 0.00 | 0.05 | 0.00 | 86 | 1017.7 |
| 20260509224535 | 11 | 39 | 9.7 | 19.3 | 0.00 | 0.05 | 0.05 | 86 | 1017.6 |
| 20260509223027 | 11 | 11 | 6.4 | 17.7 | 0.00 | 0.05 | 0.05 | 86 | 1017.5 |
| 20260509221530 | 11 | 10 | 8.0 | 22.5 | 0.00 | 0.05 | 0.05 | 86 | 1017.4 |
| 20260509220029 | 11 | 13 | 3.2 | 14.5 | 0.00 | 0.05 | 0.05 | 85 | 1017.3 |
| 20260509214524 | 11 | 350 | 6.4 | 17.7 | 0.00 | 0.15 | 0.05 | 85 | 1017.3 |
| 20260509213023 | 12 | 5 | 9.7 | 19.3 | 0.00 | 0.15 | 0.05 | 85 | 1017.1 |
| 20260509211524 | 12 | 38 | 9.7 | 19.3 | 0.00 | 0.15 | 0.05 | 84 | 1016.9 |
| 20260509210022 | 12 | 67 | 11.3 | 19.3 | 0.00 | 0.15 | 0.05 | 84 | 1016.8 |
| 20260509204521 | 12 | 21 | 6.4 | 19.3 | 0.00 | 0.15 | 0.05 | 84 | 1016.5 |
| 20260509203026 | 12 | 13 | 11.3 | 22.5 | 0.00 | 0.15 | 0.05 | 85 | 1016.4 |
| 20260509201520 | 13 | 20 | 8.0 | 19.3 | 0.00 | 0.15 | 0.05 | 84 | 1016.4 |
| 20260509200020 | 13 | 14 | 12.9 | 24.1 | 0.00 | 0.15 | 0.05 | 83 | 1016.1 |
| 20260509194524 | 13 | 360 | 9.7 | 27.4 | 0.00 | 0.33 | 0.05 | 83 | 1016.0 |
| 20260509193019 | 13 | 341 | 8.0 | 16.1 | 0.00 | 0.33 | 0.05 | 83 | 1015.7 |
| 20260509191518 | 14 | 360 | 6.4 | 17.7 | 0.00 | 0.33 | 0.05 | 82 | 1015.6 |
| 20260509190017 | 14 | 348 | 6.4 | 16.1 | 0.00 | 0.33 | 0.05 | 80 | 1015.6 |
| 20260509184526 | 15 | 5 | 4.8 | 19.3 | 0.00 | 0.43 | 0.05 | 79 | 1015.4 |
| 20260509183018 | 15 | 36 | 12.9 | 22.5 | 0.00 | 0.43 | 0.05 | 77 | 1015.2 |
| 20260509181515 | 16 | 355 | 11.3 | 25.7 | 0.00 | 0.43 | 0.05 | 76 | 1015.0 |
| 20260509180018 | 17 | 342 | 8.0 | 19.3 | 0.00 | 0.43 | 0.05 | 75 | 1014.9 |
| 20260509174514 | 18 | 25 | 0.0 | 12.9 | 0.00 | 0.43 | 0.05 | 63 | 1014.8 |
| 20260509173013 | 18 | 53 | 3.2 | 9.7 | 0.00 | 0.43 | 0.05 | 59 | 1014.7 |
| 20260509171512 | 18 | 34 | 3.2 | 8.0 | 0.00 | 0.43 | 0.05 | 60 | 1014.8 |
| 20260509170012 | 17 | 62 | 6.4 | 14.5 | 0.00 | 0.43 | 0.05 | 60 | 1014.9 |
| 20260509164512 | 17 | 55 | 1.6 | 8.0 | 0.00 | 0.43 | 0.05 | 62 | 1014.8 |
| 20260509163010 | 17 | 91 | 8.0 | 14.5 | 0.00 | 0.43 | 0.05 | 60 | 1014.7 |
| 20260509161511 | 18 | 71 | 1.6 | 8.0 | 0.00 | 0.43 | 0.05 | 61 | 1014.7 |
| 20260509160009 | 17 | 56 | 4.8 | 9.7 | 0.00 | 0.43 | 0.05 | 62 | 1014.8 |
| 20260509154515 | 18 | 76 | 3.2 | 11.3 | 0.00 | 0.43 | 0.05 | 63 | 1014.8 |
| 20260509153012 | 18 | 44 | 3.2 | 9.7 | 0.00 | 0.43 | 0.05 | 58 | 1014.9 |
| 20260509151507 | 18 | 91 | 4.8 | 9.7 | 0.00 | 0.43 | 0.05 | 57 | 1014.7 |
| 20260509150006 | 18 | 105 | 3.2 | 11.3 | 0.00 | 0.43 | 0.05 | 58 | 1014.8 |
| 20260509144505 | 18 | 63 | 3.2 | 8.0 | 0.00 | 0.43 | 0.05 | 63 | 1014.9 |
| 20260509143007 | 18 | 60 | 4.8 | 14.5 | 0.00 | 0.43 | 0.05 | 62 | 1015.0 |
| 20260509141507 | 18 | 27 | 8.0 | 14.5 | 0.00 | 0.43 | 0.05 | 62 | 1015.1 |
| 20260509140005 | 18 | 82 | 4.8 | 12.9 | 0.00 | 0.43 | 0.05 | 61 | 1014.8 |
| 20260509134504 | 18 | 103 | 9.7 | 14.5 | 0.00 | 0.43 | 0.05 | 57 | 1015.0 |
| 20260509133104 | 18 | 55 | 6.4 | 14.5 | 0.00 | 0.43 | 0.05 | 64 | 1015.0 |
| 20260509131559 | 17 | 17 | 4.8 | 16.1 | 0.00 | 0.43 | 0.05 | 62 | 1015.2 |
| 20260509124554 | 17 | 43 | 8.0 | 16.1 | 0.00 | 0.43 | 0.05 | 67 | 1015.4 |
| 20260509123052 | 17 | 20 | 3.2 | 9.7 | 0.00 | 0.43 | 0.05 | 69 | 1015.6 |
| 20260509121549 | 17 | 55 | 4.8 | 16.1 | 0.00 | 0.43 | 0.05 | 69 | 1015.7 |
| 20260509120055 | 16 | 18 | 3.2 | 17.7 | 0.00 | 0.43 | 0.05 | 71 | 1015.8 |
| 20260509114545 | 16 | 59 | 4.8 | 11.3 | 0.00 | 0.43 | 0.05 | 74 | 1015.8 |
| 20260509113043 | 16 | 39 | 6.4 | 14.5 | 0.00 | 0.43 | 0.05 | 74 | 1016.2 |
| 20260509111540 | 16 | 9 | 4.8 | 12.9 | 0.00 | 0.43 | 0.05 | 77 | 1016.3 |
| 20260509110037 | 15 | 39 | 6.4 | 14.5 | 0.00 | 0.43 | 0.05 | 79 | 1016.4 |
| 20260509104535 | 15 | 69 | 1.6 | 11.3 | 0.00 | 0.43 | 0.05 | 85 | 1016.5 |
| 20260509103031 | 15 | 51 | 3.2 | 8.0 | 0.00 | 0.43 | 0.05 | 88 | 1016.7 |
| 20260509101533 | 14 | 60 | 3.2 | 9.7 | 0.00 | 0.43 | 0.05 | 94 | 1016.7 |
| 20260509100025 | 13 | 37 | 1.6 | 8.0 | 0.00 | 0.43 | 0.05 | 97 | 1016.7 |
| 20260509094524 | 13 | 36 | 1.6 | 8.0 | 0.00 | 0.43 | 0.05 | 99 | 1016.8 |
| 20260509093017 | 12 | 15 | 1.6 | 9.7 | 0.00 | 0.43 | 0.05 | 100 | 1016.8 |
| 20260509091513 | 12 | 350 | 3.2 | 8.0 | 0.00 | 0.43 | 0.05 | 100 | 1016.6 |
| 20260509090112 | 11 | 333 | 3.2 | 8.0 | 0.00 | 0.43 | 0.05 | 100 | 1016.9 |
| 20260509084507 | 11 | 22 | 3.2 | 6.4 | 0.00 | 0.43 | 0.05 | 99 | 1017.1 |
| 20260509083006 | 11 | 360 | 1.6 | 8.0 | 0.00 | 0.43 | 0.05 | 100 | 1017.2 |
| 20260509081604 | 10 | 24 | 3.2 | 6.4 | 0.00 | 0.43 | 0.05 | 100 | 1017.0 |
| 20260509080106 | 10 | 30 | 3.2 | 8.0 | 0.00 | 0.43 | 0.05 | 99 | 1017.1 |
| 20260509074558 | 9 | 30 | 3.2 | 6.4 | 0.00 | 0.43 | 0.05 | 99 | 1017.1 |
| 20260509073057 | 9 | 14 | 0.0 | 0.0 | 0.00 | 0.43 | 0.05 | 99 | 1017.1 |
| 20260509071558 | 8 | 33 | 0.0 | 0.0 | 0.00 | 0.43 | 0.05 | 99 | 1017.0 |
| 20260509064555 | 7 | 38 | 0.0 | 0.0 | 0.00 | 0.43 | 0.05 | 99 | 1016.8 |
| 20260509063052 | 7 | 38 | 0.0 | 0.0 | 0.00 | 0.43 | 0.05 | 99 | 1016.7 |
| 20260509061606 | 7 | 40 | 0.0 | 0.0 | 0.00 | 0.43 | 0.05 | 99 | 1016.6 |
| 20260509054550 | 7 | 40 | 0.0 | 0.0 | 0.03 | 0.43 | 0.05 | 98 | 1016.7 |
| 20260509053046 | 7 | 40 | 0.0 | 0.0 | 0.03 | 0.43 | 0.05 | 98 | 1016.8 |
| 20260509051544 | 7 | 40 | 0.0 | 0.0 | 0.03 | 0.43 | 0.05 | 98 | 1016.7 |
| 20260509050100 | 7 | 41 | 0.0 | 0.0 | 0.00 | 0.43 | 0.03 | 98 | 1016.5 |
| 20260509044555 | 7 | 50 | 0.0 | 0.0 | 0.00 | 0.43 | 0.03 | 98 | 1016.5 |
| 20260509043042 | 7 | 50 | 0.0 | 0.0 | 0.00 | 0.43 | 0.03 | 98 | 1016.5 |
| 20260509041541 | 7 | 50 | 0.0 | 0.0 | 0.00 | 0.43 | 0.03 | 98 | 1016.5 |
| 20260509040041 | 7 | 50 | 0.0 | 0.0 | 0.00 | 0.43 | 0.03 | 98 | 1016.3 |
| 20260509034542 | 7 | 50 | 0.0 | 0.0 | 0.00 | 0.43 | 0.03 | 98 | 1016.0 |
| 20260509033040 | 7 | 50 | 0.0 | 0.0 | 0.00 | 0.43 | 0.03 | 97 | 1016.2 |
| 20260509031536 | 7 | 50 | 0.0 | 0.0 | 0.00 | 0.43 | 0.03 | 97 | 1016.2 |
| 20260509030039 | 7 | 50 | 0.0 | 0.0 | 0.00 | 0.43 | 0.03 | 97 | 1016.2 |
| 20260509024535 | 7 | 50 | 0.0 | 0.0 | 0.00 | 0.43 | 0.03 | 97 | 1016.2 |
| 20260509023038 | 7 | 50 | 0.0 | 0.0 | 0.00 | 0.43 | 0.03 | 97 | 1016.1 |
| 20260509021533 | 7 | 49 | 0.0 | 0.0 | 0.00 | 0.43 | 0.03 | 97 | 1016.1 |